createdAt,value
2022-10-22T00:02:27.722Z,2.60
2022-10-22T00:04:56.997Z,2.58
2022-10-22T00:07:24.083Z,5.20
2022-10-22T00:09:50.850Z,1.70
2022-10-22T00:12:18.035Z,1.65
2022-10-22T00:14:44.855Z,1.67
2022-10-22T00:17:11.896Z,1.10
2022-10-22T00:19:39.850Z,2.03
2022-10-22T00:22:07.877Z,0.95
2022-10-22T00:24:35.791Z,2.03
2022-10-22T00:27:03.638Z,1.73
2022-10-22T00:29:31.667Z,0.63
2022-10-22T00:31:58.867Z,1.45
2022-10-22T00:34:26.308Z,1.30
2022-10-22T00:36:53.659Z,1.10
2022-10-22T00:39:22.962Z,0.93
2022-10-22T00:41:52.141Z,1.10
2022-10-22T00:44:56.669Z,5.38
2022-10-22T00:47:25.144Z,1.40
2022-10-22T00:49:53.783Z,1.60
2022-10-22T00:52:21.282Z,1.30
2022-10-22T00:54:48.415Z,1.85
2022-10-22T00:57:16.556Z,1.55
2022-10-22T00:59:43.384Z,1.48
2022-10-22T01:02:10.147Z,1.27
2022-10-22T01:04:36.850Z,0.57
2022-10-22T01:07:03.673Z,1.95
2022-10-22T01:09:30.335Z,0.90
2022-10-22T01:12:19.701Z,0.50
2022-10-22T01:15:05.613Z,0.93
2022-10-22T01:18:07.933Z,1.20
2022-10-22T01:20:48.550Z,1.23
2022-10-22T01:23:30.574Z,1.85
2022-10-22T01:26:17.361Z,0.90
2022-10-22T01:29:07.434Z,1.27
2022-10-22T01:31:39.556Z,1.15
2022-10-22T01:34:09.758Z,1.27
2022-10-22T01:36:38.755Z,0.80
2022-10-22T01:39:07.352Z,0.75
2022-10-22T01:41:35.251Z,1.98
2022-10-22T01:48:10.916Z,1.02
2022-10-22T01:51:03.565Z,1.35
2022-10-22T01:53:49.327Z,1.35
2022-10-22T01:56:30.922Z,0.95
2022-10-22T01:59:35.511Z,0.63
2022-10-22T02:02:30.332Z,0.63
2022-10-22T02:05:44.844Z,0.60
2022-10-22T02:08:19.264Z,0.55
2022-10-22T02:10:48.497Z,0.70
2022-10-22T02:13:37.511Z,0.98
2022-10-22T02:16:08.029Z,1.20
2022-10-22T02:18:39.473Z,0.22
2022-10-22T02:23:35.357Z,0.50
2022-10-22T02:26:14.486Z,0.47
2022-10-22T02:29:06.247Z,0.75
2022-10-22T02:31:37.246Z,0.20
2022-10-22T02:34:10.181Z,0.40
2022-10-22T02:36:39.132Z,0.40
2022-10-22T02:39:07.909Z,0.50
2022-10-22T02:41:35.317Z,0.55
2022-10-22T02:44:03.001Z,0.10
2022-10-22T02:46:29.822Z,0.50
2022-10-22T02:48:56.517Z,0.35
2022-10-22T02:51:23.333Z,0.93
2022-10-22T02:53:49.970Z,0.32
2022-10-22T02:56:16.646Z,0.20
2022-10-22T02:58:43.338Z,0.57
2022-10-22T03:01:12.430Z,0.47
2022-10-22T03:03:42.659Z,0.25
2022-10-22T03:06:09.420Z,0.73
2022-10-22T03:08:36.301Z,0.25
2022-10-22T03:11:03.040Z,0.32
2022-10-22T03:13:29.725Z,0.52
2022-10-22T03:15:56.480Z,0.20
2022-10-22T03:18:23.306Z,0.40
2022-10-22T03:20:50.029Z,0.55
2022-10-22T03:23:19.786Z,0.52
2022-10-22T03:25:49.142Z,0.77
2022-10-22T03:28:18.481Z,0.75
2022-10-22T03:30:45.198Z,0.20
2022-10-22T03:33:11.881Z,0.25
2022-10-22T03:35:44.745Z,0.30
2022-10-22T03:38:11.639Z,0.20
2022-10-22T03:40:38.658Z,0.77
2022-10-22T03:43:05.661Z,0.65
2022-10-22T03:45:32.501Z,0.30
2022-10-22T03:47:59.574Z,1.02
2022-10-22T03:50:26.308Z,0.20
2022-10-22T03:52:53.627Z,0.80
2022-10-22T03:55:20.656Z,0.52
2022-10-22T03:57:47.535Z,0.55
2022-10-22T04:00:14.603Z,0.20
2022-10-22T04:02:41.418Z,0.38
2022-10-22T04:05:08.458Z,0.17
2022-10-22T04:07:35.440Z,0.45
2022-10-22T04:10:02.233Z,0.20
2022-10-22T04:12:28.916Z,0.40
2022-10-22T04:14:55.588Z,0.55
2022-10-22T04:17:22.365Z,1.08
2022-10-22T04:19:49.062Z,0.20
2022-10-22T04:22:15.803Z,0.20
2022-10-22T04:24:43.002Z,0.47
2022-10-22T04:27:09.785Z,0.22
2022-10-22T04:29:36.550Z,0.47
2022-10-22T04:32:03.418Z,0.20
2022-10-22T04:34:30.258Z,0.88
2022-10-22T04:36:57.049Z,0.30
2022-10-22T04:39:23.943Z,0.30
2022-10-22T04:41:50.722Z,1.17
2022-10-22T04:44:17.598Z,0.85
2022-10-22T04:46:45.271Z,1.30
2022-10-22T04:49:12.023Z,0.35
2022-10-22T04:51:38.872Z,0.60
2022-10-22T04:54:05.731Z,0.28
2022-10-22T04:56:32.891Z,0.65
2022-10-22T04:59:02.316Z,1.65
2022-10-22T05:01:36.952Z,1.15
2022-10-22T05:04:08.450Z,1.13
2022-10-22T05:06:36.700Z,1.20
2022-10-22T05:09:10.702Z,0.77
2022-10-22T05:11:41.569Z,0.30
2022-10-22T05:14:10.030Z,0.40
2022-10-22T05:16:38.152Z,0.60
2022-10-22T05:19:05.813Z,0.40
2022-10-22T05:21:33.265Z,0.70
2022-10-22T05:24:00.777Z,0.75
2022-10-22T05:26:29.381Z,1.13
2022-10-22T05:28:59.829Z,1.00
2022-10-22T05:31:28.744Z,0.68
2022-10-22T05:33:55.572Z,0.47
2022-10-22T05:36:23.013Z,1.17
2022-10-22T05:38:50.193Z,0.98
2022-10-22T05:41:19.620Z,0.88
2022-10-22T05:43:46.961Z,1.05
2022-10-22T05:46:22.032Z,1.20
2022-10-22T05:48:51.136Z,1.08
2022-10-22T05:51:19.187Z,0.40
2022-10-22T05:53:57.914Z,1.33
2022-10-22T05:56:26.033Z,0.55
2022-10-22T05:58:53.324Z,0.52
2022-10-22T06:01:25.635Z,0.47
2022-10-22T06:03:58.141Z,0.93
2022-10-22T06:06:35.209Z,0.25
2022-10-22T06:09:13.132Z,0.22
2022-10-22T06:11:39.896Z,0.30
2022-10-22T06:14:06.561Z,0.35
2022-10-22T06:16:33.260Z,0.52
2022-10-22T06:19:03.586Z,0.40
2022-10-22T06:21:31.743Z,0.77
2022-10-22T06:24:00.650Z,0.75
2022-10-22T06:26:28.522Z,0.57
2022-10-22T06:28:56.632Z,1.25
2022-10-22T06:31:24.570Z,1.25
2022-10-22T06:33:51.425Z,1.63
2022-10-22T06:36:22.002Z,1.73
2022-10-22T06:38:52.060Z,1.33
2022-10-22T06:41:19.276Z,0.80
2022-10-22T06:43:49.156Z,1.70
2022-10-22T06:46:20.479Z,1.33
2022-10-22T06:48:52.042Z,1.50
2022-10-22T06:53:46.113Z,1.35
2022-10-22T06:56:16.145Z,1.35
2022-10-22T06:58:43.125Z,0.75
2022-10-22T07:01:13.085Z,1.30
2022-10-22T07:03:41.154Z,1.20
2022-10-22T07:06:10.482Z,0.95
2022-10-22T07:08:38.717Z,1.08
2022-10-22T07:11:12.182Z,0.95
2022-10-22T07:13:39.481Z,0.73
2022-10-22T07:16:07.314Z,0.82
2022-10-22T07:18:35.106Z,0.57
2022-10-22T07:21:02.840Z,0.68
2022-10-22T07:23:29.813Z,1.20
2022-10-22T07:28:24.068Z,0.95
2022-10-22T07:30:51.036Z,0.80
2022-10-22T07:33:17.965Z,0.65
2022-10-22T07:35:44.800Z,0.80
2022-10-22T07:38:11.620Z,1.00
2022-10-22T07:40:38.553Z,1.00
2022-10-22T07:43:06.682Z,0.73
2022-10-22T07:45:33.865Z,0.60
2022-10-22T07:48:01.788Z,0.52
2022-10-22T07:50:28.888Z,1.10
2022-10-22T07:52:57.547Z,0.60
2022-10-22T07:55:25.896Z,0.98
2022-10-22T07:57:53.149Z,0.47
2022-10-22T08:00:23.197Z,1.20
2022-10-22T08:02:52.416Z,0.60
2022-10-22T08:05:19.601Z,0.60
2022-10-22T08:07:46.470Z,0.73
2022-10-22T08:10:13.814Z,0.38
2022-10-22T08:12:41.306Z,0.43
2022-10-22T08:15:09.118Z,1.58
2022-10-22T08:17:36.094Z,0.38
2022-10-22T08:20:03.192Z,0.77
2022-10-22T08:22:30.138Z,0.43
2022-10-22T08:24:57.046Z,0.50
2022-10-22T08:27:24.087Z,1.52
2022-10-22T08:29:50.836Z,0.40
2022-10-22T08:32:17.756Z,0.55
2022-10-22T08:34:44.603Z,0.55
2022-10-22T08:37:14.363Z,0.52
2022-10-22T08:39:41.460Z,2.13
2022-10-22T08:42:25.986Z,5.38
2022-10-22T08:45:14.212Z,0.40
2022-10-22T08:47:58.884Z,0.20
2022-10-22T08:50:38.658Z,0.90
2022-10-22T08:53:13.406Z,0.55
2022-10-22T08:55:40.470Z,1.05
2022-10-22T08:58:45.986Z,0.82
2022-10-22T09:01:27.754Z,0.20
2022-10-22T09:09:16.684Z,0.20
2022-10-22T09:11:55.233Z,0.40
2022-10-22T09:14:24.736Z,1.35
2022-10-22T09:17:13.387Z,0.52
2022-10-22T09:19:46.439Z,0.28
2022-10-22T09:22:16.186Z,0.60
2022-10-22T09:24:48.630Z,0.38
2022-10-22T09:27:21.509Z,0.20
2022-10-22T09:29:48.546Z,0.20
2022-10-22T09:32:16.366Z,0.45
2022-10-22T09:34:48.097Z,0.28
2022-10-22T09:37:19.145Z,0.10
2022-10-22T09:39:50.789Z,1.80
2022-10-22T09:42:19.462Z,0.45
2022-10-22T09:44:54.120Z,0.30
2022-10-22T09:48:00.649Z,0.40
2022-10-22T09:50:38.617Z,0.70
2022-10-22T09:53:19.062Z,0.10
2022-10-22T09:58:22.946Z,0.20
2022-10-22T10:00:56.869Z,0.22
2022-10-22T10:03:27.426Z,0.10
2022-10-22T10:06:04.800Z,0.43
2022-10-22T10:08:33.767Z,0.43
2022-10-22T10:11:08.122Z,1.67
2022-10-22T10:13:46.120Z,0.57
2022-10-22T10:16:27.426Z,0.63
2022-10-22T10:19:30.390Z,0.43
2022-10-22T10:22:18.647Z,0.10
2022-10-22T10:25:19.742Z,0.30
2022-10-22T10:27:55.308Z,0.93
2022-10-22T10:30:25.610Z,0.20
2022-10-22T10:33:18.173Z,0.32
2022-10-22T10:35:58.588Z,0.20
2022-10-22T10:38:40.238Z,0.10
2022-10-22T10:43:52.628Z,0.57
2022-10-22T10:46:49.932Z,0.40
2022-10-22T10:49:29.848Z,0.45
2022-10-22T10:52:18.976Z,0.75
2022-10-22T10:55:13.141Z,0.60
2022-10-22T10:57:55.415Z,0.50
2022-10-22T11:00:22.611Z,0.40
2022-10-22T11:03:10.941Z,0.60
2022-10-22T11:06:00.534Z,0.40
2022-10-22T11:08:38.902Z,0.20
2022-10-22T11:11:07.669Z,0.13
2022-10-22T11:13:46.610Z,1.05
2022-10-22T11:16:31.962Z,1.10
2022-10-22T11:19:06.905Z,0.52
2022-10-22T11:21:45.277Z,0.90
2022-10-22T11:24:40.452Z,0.30
2022-10-22T11:27:11.411Z,1.65
2022-10-22T11:29:43.083Z,0.35
2022-10-22T11:32:20.015Z,0.75
2022-10-22T11:34:55.360Z,0.30
2022-10-22T11:37:26.816Z,0.28
2022-10-22T11:42:35.324Z,0.20
2022-10-22T11:45:03.841Z,0.30
2022-10-22T11:47:52.356Z,0.70
2022-10-22T11:50:26.163Z,0.73
2022-10-22T11:53:05.142Z,0.68
2022-10-22T11:55:33.833Z,0.35
2022-10-22T11:58:02.549Z,0.80
2022-10-22T12:00:40.331Z,0.45
2022-10-22T12:03:24.318Z,1.17
2022-10-22T12:06:12.114Z,0.35
2022-10-22T12:08:49.409Z,0.57
2022-10-22T12:11:48.278Z,0.90
2022-10-22T12:14:29.555Z,0.95
2022-10-22T12:16:58.978Z,0.77
2022-10-22T12:19:39.056Z,2.35
2022-10-22T12:22:33.870Z,0.40
2022-10-22T12:25:02.517Z,0.77
2022-10-22T12:27:40.945Z,0.52
2022-10-22T12:30:22.330Z,0.77
2022-10-22T12:32:53.755Z,0.20
2022-10-22T12:37:54.246Z,0.63
2022-10-22T12:40:24.217Z,0.90
2022-10-22T12:43:00.304Z,0.70
2022-10-22T12:45:30.066Z,0.50
2022-10-22T12:47:59.670Z,1.83
2022-10-22T12:50:44.652Z,0.47
2022-10-22T12:53:35.314Z,0.82
2022-10-22T12:56:15.953Z,0.70
2022-10-22T12:59:04.805Z,1.17
2022-10-22T13:01:38.007Z,0.82
2022-10-22T13:04:20.170Z,0.68
2022-10-22T13:06:52.795Z,0.52
2022-10-22T13:09:27.457Z,0.65
2022-10-22T13:12:04.883Z,0.80
2022-10-22T13:14:34.649Z,0.30
2022-10-22T13:17:07.543Z,0.95
2022-10-22T13:19:55.263Z,0.47
2022-10-22T13:22:35.889Z,1.10
2022-10-22T13:25:20.414Z,2.93
2022-10-22T13:27:56.356Z,0.57
2022-10-22T13:30:35.957Z,0.43
2022-10-22T13:33:04.107Z,0.22
2022-10-22T13:35:35.802Z,0.38
2022-10-22T13:38:02.542Z,1.85
2022-10-22T13:40:29.376Z,1.15
2022-10-22T13:42:56.151Z,0.10
2022-10-22T13:45:23.452Z,0.52
2022-10-22T13:47:53.171Z,0.47
2022-10-22T13:50:21.349Z,0.50
2022-10-22T13:52:54.323Z,0.35
2022-10-22T13:55:28.943Z,2.30
2022-10-22T13:57:57.778Z,0.20
2022-10-22T14:00:26.645Z,0.60
2022-10-22T14:02:57.171Z,0.95
2022-10-22T14:05:24.033Z,0.68
2022-10-22T14:07:51.796Z,0.95
2022-10-22T14:10:21.937Z,1.10
2022-10-22T14:12:52.488Z,1.63
2022-10-22T14:15:25.304Z,0.43
2022-10-22T14:17:58.853Z,0.60
2022-10-22T14:20:31.011Z,0.20
2022-10-22T14:23:05.686Z,0.45
2022-10-22T14:25:32.496Z,0.40
2022-10-22T14:27:59.206Z,0.50
2022-10-22T14:30:26.745Z,0.88
2022-10-22T14:32:53.597Z,0.40
2022-10-22T14:35:22.454Z,0.25
2022-10-22T14:37:49.245Z,0.30
2022-10-22T14:40:18.780Z,0.40
2022-10-22T14:42:47.138Z,0.52
2022-10-22T14:45:21.308Z,0.70
2022-10-22T14:47:50.068Z,0.40
2022-10-22T14:50:18.142Z,0.47
2022-10-22T14:52:45.098Z,0.52
2022-10-22T14:55:13.741Z,0.98
2022-10-22T14:57:41.800Z,1.20
2022-10-22T15:00:17.227Z,1.25
2022-10-22T15:02:44.853Z,0.88
2022-10-22T15:05:11.913Z,0.30
2022-10-22T15:07:39.156Z,1.65
2022-10-22T15:10:07.929Z,1.83
2022-10-22T15:12:34.839Z,0.20
2022-10-22T15:15:01.911Z,1.40
2022-10-22T15:17:28.693Z,0.70
2022-10-22T15:19:56.381Z,1.77
2022-10-22T15:22:23.121Z,1.02
2022-10-22T15:24:49.905Z,0.20
2022-10-22T15:27:17.031Z,1.00
2022-10-22T15:29:43.980Z,0.60
2022-10-22T15:32:11.269Z,1.13
2022-10-22T15:34:40.041Z,0.68
2022-10-22T15:37:09.075Z,0.50
2022-10-22T15:39:35.878Z,0.45
2022-10-22T15:42:02.743Z,0.98
2022-10-22T15:44:31.687Z,0.77
2022-10-22T15:46:59.105Z,0.70
2022-10-22T15:49:28.342Z,0.40
2022-10-22T15:51:55.510Z,0.40
2022-10-22T15:54:28.564Z,1.13
2022-10-22T15:56:56.819Z,0.45
2022-10-22T15:59:23.914Z,0.90
2022-10-22T16:01:51.411Z,0.38
2022-10-22T16:04:18.166Z,0.85
2022-10-22T16:06:52.347Z,0.80
2022-10-22T16:09:22.624Z,1.63
2022-10-22T16:11:50.923Z,0.40
2022-10-22T16:14:20.284Z,1.02
2022-10-22T16:16:49.973Z,1.30
2022-10-22T16:19:19.252Z,0.40
2022-10-22T16:21:46.259Z,0.70
2022-10-22T16:24:13.239Z,1.98
2022-10-22T16:26:39.998Z,0.75
2022-10-22T16:29:08.315Z,1.60
2022-10-22T16:31:35.028Z,0.90
2022-10-22T16:34:01.822Z,1.45
2022-10-22T16:36:28.817Z,0.90
2022-10-22T16:38:56.506Z,2.20
2022-10-22T16:41:25.251Z,1.40
2022-10-22T16:43:55.136Z,0.57
2022-10-22T16:46:22.928Z,1.13
2022-10-22T16:48:52.153Z,1.42
2022-10-22T16:51:22.142Z,3.45
2022-10-22T16:53:51.309Z,1.48
2022-10-22T16:56:18.663Z,2.38
2022-10-22T16:58:50.583Z,1.85
2022-10-22T17:01:19.675Z,2.45
2022-10-22T17:03:46.585Z,1.65
2022-10-22T17:06:13.686Z,3.17
2022-10-22T17:08:41.791Z,6.00
2022-10-22T17:11:14.126Z,9.80
2022-10-22T17:13:41.821Z,5.05
2022-10-22T17:16:11.197Z,3.92
2022-10-22T17:18:39.909Z,3.95
2022-10-22T17:21:08.577Z,3.90
2022-10-22T17:23:35.449Z,4.22
2022-10-22T17:26:06.531Z,4.55
2022-10-22T17:28:35.887Z,2.97
2022-10-22T17:31:09.026Z,2.80
2022-10-22T17:33:36.384Z,1.90
2022-10-22T17:36:09.041Z,2.78
2022-10-22T17:38:35.766Z,2.75
2022-10-22T17:41:04.248Z,3.53
2022-10-22T17:43:34.891Z,2.25
2022-10-22T17:46:10.774Z,2.30
2022-10-22T17:48:37.661Z,1.60
2022-10-22T17:51:08.784Z,3.75
2022-10-22T17:53:35.865Z,2.63
2022-10-22T17:56:06.971Z,2.33
2022-10-22T17:58:33.878Z,2.03
2022-10-22T18:01:00.674Z,1.83
2022-10-22T18:03:27.897Z,3.20
2022-10-22T18:05:55.528Z,4.13
2022-10-22T18:08:24.042Z,1.90
2022-10-22T18:10:50.799Z,5.50
2022-10-22T18:13:17.475Z,4.97
2022-10-22T18:15:44.186Z,4.32
2022-10-22T18:18:10.845Z,2.97
2022-10-22T18:20:37.538Z,2.95
2022-10-22T18:23:04.317Z,3.13
2022-10-22T18:25:31.750Z,3.53
2022-10-22T18:27:58.573Z,2.13
2022-10-22T18:30:25.268Z,4.00
2022-10-22T18:32:52.011Z,3.33
2022-10-22T18:35:18.840Z,3.13
2022-10-22T18:37:46.875Z,4.05
2022-10-22T18:40:14.863Z,3.55
2022-10-22T18:42:42.042Z,4.38
2022-10-22T18:45:10.505Z,5.47
2022-10-22T18:47:40.476Z,5.15
2022-10-22T18:50:08.442Z,4.70
2022-10-22T18:52:35.387Z,2.80
2022-10-22T18:55:02.422Z,2.72
2022-10-22T18:57:29.113Z,1.83
2022-10-22T18:59:58.624Z,1.48
2022-10-22T19:02:26.667Z,2.58
2022-10-22T19:04:53.345Z,2.17
2022-10-22T19:07:20.443Z,3.33
2022-10-22T19:09:47.187Z,3.40
2022-10-22T19:12:15.808Z,2.17
2022-10-22T19:14:42.840Z,2.65
2022-10-22T19:17:09.725Z,2.35
2022-10-22T19:19:36.487Z,4.03
2022-10-22T19:22:04.307Z,3.10
2022-10-22T19:24:31.172Z,1.88
2022-10-22T19:26:57.870Z,3.95
2022-10-22T19:29:24.645Z,3.50
2022-10-22T19:31:51.435Z,2.50
2022-10-22T19:34:18.504Z,3.22
2022-10-22T19:36:45.239Z,3.17
2022-10-22T19:39:16.218Z,2.88
2022-10-22T19:41:43.568Z,4.30
2022-10-22T19:44:10.829Z,3.47
2022-10-22T19:46:37.590Z,4.93
2022-10-22T19:49:04.806Z,2.72
2022-10-22T19:51:33.819Z,2.70
2022-10-22T19:54:05.939Z,3.30
2022-10-22T19:56:34.299Z,3.50
2022-10-22T19:59:01.168Z,4.15
2022-10-22T20:01:28.552Z,2.50
2022-10-22T20:03:55.411Z,2.65
2022-10-22T20:06:22.140Z,2.95
2022-10-22T20:08:51.137Z,3.03
2022-10-22T20:11:23.478Z,2.85
2022-10-22T20:13:52.346Z,4.60
2022-10-22T20:16:23.044Z,3.35
2022-10-22T20:18:50.949Z,3.83
2022-10-22T20:21:19.393Z,4.40
2022-10-22T20:23:46.928Z,3.28
2022-10-22T20:26:13.958Z,3.63
2022-10-22T20:28:40.714Z,5.47
2022-10-22T20:31:11.998Z,3.60
2022-10-22T20:33:39.148Z,3.97
2022-10-22T20:36:09.223Z,3.33
2022-10-22T20:41:10.459Z,3.30
2022-10-22T20:43:37.382Z,1.75
2022-10-22T20:46:04.368Z,3.22
2022-10-22T20:48:31.653Z,3.95
2022-10-22T20:50:59.728Z,2.22
2022-10-22T20:53:27.572Z,3.35
2022-10-22T20:55:58.777Z,2.20
2022-10-22T20:58:27.073Z,3.35
2022-10-22T21:00:55.432Z,2.28
2022-10-22T21:03:23.117Z,3.58
2022-10-22T21:05:49.949Z,4.22
2022-10-22T21:08:17.625Z,2.63
2022-10-22T21:10:46.422Z,3.45
2022-10-22T21:13:13.943Z,3.00
2022-10-22T21:15:41.202Z,2.58
2022-10-22T21:18:08.407Z,2.40
2022-10-22T21:20:35.201Z,1.40
2022-10-22T21:23:01.941Z,2.15
2022-10-22T21:25:28.669Z,3.78
2022-10-22T21:27:55.427Z,2.50
2022-10-22T21:30:22.302Z,2.05
2022-10-22T21:32:51.870Z,2.42
2022-10-22T21:35:21.179Z,2.28
2022-10-22T21:37:48.055Z,3.03
2022-10-22T21:40:14.830Z,2.33
2022-10-22T21:42:41.542Z,2.92
2022-10-22T21:45:13.122Z,3.00
2022-10-22T21:47:41.904Z,5.07
2022-10-22T21:50:09.487Z,3.10
2022-10-22T21:52:36.623Z,3.58
2022-10-22T21:55:03.570Z,3.45
2022-10-22T21:57:30.264Z,4.53
2022-10-22T21:59:57.146Z,4.20
2022-10-22T22:02:24.152Z,4.45
2022-10-22T22:04:54.763Z,4.88
2022-10-22T22:07:22.802Z,3.75
2022-10-22T22:09:52.733Z,3.88
2022-10-22T22:12:20.997Z,3.05
2022-10-22T22:14:48.337Z,4.60
2022-10-22T22:17:16.477Z,4.50
2022-10-22T22:19:43.332Z,5.03
2022-10-22T22:22:10.325Z,3.95
2022-10-22T22:24:38.216Z,4.50
2022-10-22T22:27:05.181Z,3.45
2022-10-22T22:29:32.351Z,4.03
2022-10-22T22:31:59.027Z,3.50
2022-10-22T22:34:25.941Z,3.85
2022-10-22T22:36:52.636Z,2.83
2022-10-22T22:39:22.685Z,2.85
2022-10-22T22:41:49.614Z,3.38
2022-10-22T22:44:16.918Z,3.17
2022-10-22T22:46:44.044Z,2.60
2022-10-22T22:49:12.667Z,3.13
2022-10-22T22:51:39.489Z,4.28
2022-10-22T22:54:06.164Z,3.35
2022-10-22T22:56:37.055Z,2.90
2022-10-22T22:59:04.868Z,2.65
2022-10-22T23:01:36.907Z,2.88
2022-10-22T23:04:06.685Z,2.95
2022-10-22T23:06:36.260Z,3.00
2022-10-22T23:09:08.735Z,2.30
2022-10-22T23:11:36.143Z,2.95
2022-10-22T23:14:04.941Z,3.25
2022-10-22T23:16:34.356Z,2.67
2022-10-22T23:19:01.810Z,2.13
2022-10-22T23:21:34.797Z,1.52
2022-10-22T23:24:04.913Z,2.25
2022-10-22T23:26:34.661Z,2.25
2022-10-22T23:29:05.172Z,3.42
2022-10-22T23:31:32.036Z,2.38
2022-10-22T23:33:58.806Z,2.80
2022-10-22T23:36:25.858Z,2.72
2022-10-22T23:38:52.638Z,1.95
2022-10-22T23:41:19.368Z,3.15
2022-10-22T23:43:46.064Z,2.50
2022-10-22T23:46:13.879Z,3.80
2022-10-22T23:48:41.365Z,2.47
2022-10-22T23:51:11.481Z,2.67
2022-10-22T23:53:38.967Z,3.28
2022-10-22T23:56:08.875Z,2.45
2022-10-22T23:58:35.884Z,2.10
